Hermanus, South Africa
Current Conditions -  °F | °C
As of 10:00 PM on Friday 31 Oct 2014 (Local Time) from FACT Reporting Station
Clear Clear  
Wind Chill: 61°   Ceiling: Unl
Heat Index: 61°   Visibility: 6mi
Dew Point: 48°   Wind: 12mph
Humidity: 63%   Direction: 120°ESE
Pressure: 29.94"   Gusts: NA
Location:  34.41°S, 19.23°E
Report Text: FACT 312000Z 12010KT CAVOK 16/09 Q1014 NOSIG
Loading
Personal Weather Stations






























Interactive Weather Map
Tropical Storm Tracking
New forecast layout! Learn more

10-Day Weather Forecast

Advertisements
Track Severe Weather on mobile